createdAt,value
2019-03-25T00:02:00.080Z,7.35
2019-03-25T00:04:31.605Z,7.40
2019-03-25T00:07:02.522Z,7.45
2019-03-25T00:09:33.470Z,7.55
2019-03-25T00:12:04.565Z,7.52
2019-03-25T00:14:35.493Z,7.53
2019-03-25T00:17:06.432Z,7.50
2019-03-25T00:19:37.684Z,7.50
2019-03-25T00:22:09.341Z,7.45
2019-03-25T00:24:40.234Z,7.44
2019-03-25T00:27:11.311Z,7.50
2019-03-25T00:29:42.172Z,7.58
2019-03-25T00:32:13.014Z,7.62
2019-03-25T00:34:44.628Z,7.66
2019-03-25T00:37:15.569Z,7.74
2019-03-25T00:39:47.068Z,7.71
2019-03-25T00:42:18.670Z,7.68
2019-03-25T00:44:49.903Z,7.66
2019-03-25T00:47:21.315Z,7.63
2019-03-25T00:49:52.201Z,7.67
2019-03-25T00:52:22.995Z,7.72
2019-03-25T00:54:53.828Z,7.76
2019-03-25T00:57:24.690Z,7.81
2019-03-25T00:59:56.435Z,7.84
2019-03-25T01:02:27.751Z,7.91
2019-03-25T01:04:58.621Z,7.91
2019-03-25T01:07:29.429Z,8.02
2019-03-25T01:10:00.567Z,8.10
2019-03-25T01:12:31.426Z,8.21
2019-03-25T01:15:02.245Z,8.27
2019-03-25T01:17:34.570Z,8.25
2019-03-25T01:20:06.883Z,8.30
2019-03-25T01:22:38.236Z,8.34
2019-03-25T01:25:09.391Z,8.41
2019-03-25T01:27:40.189Z,8.48
2019-03-25T01:30:11.536Z,8.52
2019-03-25T01:32:42.436Z,8.52
2019-03-25T01:35:14.054Z,8.58
2019-03-25T01:37:44.974Z,8.59
2019-03-25T01:40:15.992Z,8.56
2019-03-25T01:42:47.074Z,8.59
2019-03-25T01:45:17.955Z,8.48
2019-03-25T01:47:48.757Z,8.45
2019-03-25T01:50:20.106Z,8.45
2019-03-25T01:52:50.966Z,8.47
2019-03-25T01:55:22.076Z,8.42
2019-03-25T01:57:53.966Z,8.42
2019-03-25T02:00:25.081Z,8.41
2019-03-25T02:02:56.225Z,8.44
2019-03-25T02:05:27.060Z,8.46
2019-03-25T02:07:58.513Z,8.49
2019-03-25T02:10:29.468Z,8.49
2019-03-25T02:13:00.570Z,8.51
2019-03-25T02:15:31.893Z,8.56
2019-03-25T02:18:03.119Z,8.60
2019-03-25T02:20:34.237Z,8.65
2019-03-25T02:23:06.990Z,8.62
2019-03-25T02:25:38.084Z,8.57
2019-03-25T02:28:08.911Z,8.55
2019-03-25T02:30:39.810Z,8.52
2019-03-25T02:33:10.573Z,8.52
2019-03-25T02:35:41.525Z,8.43
2019-03-25T02:38:12.445Z,8.39
2019-03-25T02:40:43.273Z,8.48
2019-03-25T02:43:14.128Z,8.58
2019-03-25T02:45:45.269Z,8.69
2019-03-25T02:48:16.492Z,8.74
2019-03-25T02:50:47.364Z,8.80
2019-03-25T02:53:18.215Z,8.88
2019-03-25T02:55:49.366Z,8.93
2019-03-25T02:58:20.575Z,8.93
2019-03-25T03:00:51.737Z,8.98
2019-03-25T03:03:23.604Z,9.00
2019-03-25T03:05:54.779Z,9.03
2019-03-25T03:08:25.629Z,9.07
2019-03-25T03:10:56.422Z,9.13
2019-03-25T03:13:28.299Z,9.18
2019-03-25T03:15:59.141Z,9.16
2019-03-25T03:19:37.436Z,9.27
2019-03-25T03:22:08.978Z,9.27
2019-03-25T03:24:40.114Z,9.32
2019-03-25T03:27:10.984Z,9.30
2019-03-25T03:29:42.057Z,9.33
2019-03-25T03:32:12.914Z,9.30
2019-03-25T03:34:44.309Z,9.37
2019-03-25T03:37:15.546Z,9.35
2019-03-25T03:39:47.411Z,9.36
2019-03-25T03:42:19.446Z,9.37
2019-03-25T03:44:50.610Z,9.34
2019-03-25T03:47:21.752Z,9.30
2019-03-25T03:49:52.556Z,9.26
2019-03-25T03:52:23.336Z,9.27
2019-03-25T03:54:54.457Z,9.26
2019-03-25T03:57:26.215Z,9.28
2019-03-25T03:59:58.352Z,9.28
2019-03-25T04:02:29.426Z,9.22
2019-03-25T04:05:00.560Z,9.24
2019-03-25T04:07:32.472Z,9.18
2019-03-25T04:10:03.225Z,9.18
2019-03-25T04:12:34.012Z,9.16
2019-03-25T04:15:04.966Z,9.12
2019-03-25T04:17:35.787Z,9.13
2019-03-25T04:20:06.753Z,9.10
2019-03-25T04:22:37.947Z,9.05
2019-03-25T04:25:09.247Z,9.06
2019-03-25T04:27:40.607Z,9.01
2019-03-25T04:30:11.590Z,9.03
2019-03-25T04:32:42.365Z,9.03
2019-03-25T04:35:13.096Z,9.02
2019-03-25T04:37:43.930Z,9.03
2019-03-25T04:40:14.837Z,8.99
2019-03-25T04:42:46.088Z,8.98
2019-03-25T04:45:17.166Z,8.95
2019-03-25T04:47:48.369Z,8.99
2019-03-25T04:50:19.588Z,8.97
2019-03-25T04:52:50.696Z,8.95
2019-03-25T04:55:22.628Z,9.00
2019-03-25T04:57:53.421Z,8.99
2019-03-25T05:00:49.756Z,8.96
2019-03-25T05:03:20.972Z,8.90
2019-03-25T05:05:52.257Z,8.94
2019-03-25T05:08:24.096Z,8.94
2019-03-25T05:10:54.916Z,8.88
2019-03-25T05:13:26.311Z,8.85
2019-03-25T05:15:57.300Z,8.85
2019-03-25T05:18:29.167Z,8.79
2019-03-25T05:21:00.373Z,8.75
2019-03-25T05:23:31.162Z,8.69
2019-03-25T05:26:01.990Z,8.66
2019-03-25T05:28:33.022Z,8.64
2019-03-25T05:31:04.255Z,8.61
2019-03-25T05:33:35.504Z,8.61
2019-03-25T05:36:06.768Z,8.54
2019-03-25T05:38:38.720Z,8.53
2019-03-25T05:41:09.942Z,8.46
2019-03-25T05:43:42.001Z,8.45
2019-03-25T05:46:13.278Z,8.38
2019-03-25T05:48:44.368Z,8.36
2019-03-25T05:51:15.239Z,8.37
2019-03-25T05:53:46.976Z,8.37
2019-03-25T05:56:18.494Z,8.35
2019-03-25T05:58:50.331Z,8.38
2019-03-25T06:01:21.545Z,8.28
2019-03-25T06:03:52.528Z,8.35
2019-03-25T06:06:23.421Z,8.34
2019-03-25T06:08:54.254Z,8.32
2019-03-25T06:11:25.159Z,8.36
2019-03-25T06:13:56.103Z,8.43
2019-03-25T06:16:27.154Z,8.43
2019-03-25T06:18:58.060Z,8.41
2019-03-25T06:21:29.512Z,8.41
2019-03-25T06:24:00.502Z,8.42
2019-03-25T06:26:31.402Z,8.42
2019-03-25T06:29:03.637Z,8.44
2019-03-25T06:31:34.545Z,8.43
2019-03-25T06:34:05.493Z,8.35
2019-03-25T06:36:36.936Z,8.43
2019-03-25T06:39:08.764Z,8.57
2019-03-25T06:41:39.613Z,8.58
2019-03-25T06:44:10.945Z,8.64
2019-03-25T06:46:42.273Z,8.63
2019-03-25T06:49:13.612Z,8.65
2019-03-25T06:51:45.268Z,8.60
2019-03-25T06:54:16.323Z,8.67
2019-03-25T06:56:47.278Z,8.67
2019-03-25T06:59:18.130Z,8.54
2019-03-25T07:01:49.333Z,8.67
2019-03-25T07:04:20.688Z,8.59
2019-03-25T07:06:53.040Z,8.67
2019-03-25T07:09:23.924Z,8.78
2019-03-25T07:11:55.187Z,8.72
2019-03-25T07:14:31.552Z,8.79
2019-03-25T07:17:03.039Z,8.61
2019-03-25T07:19:34.586Z,8.52
2019-03-25T07:22:05.745Z,8.63
2019-03-25T07:24:37.095Z,8.70
2019-03-25T07:27:08.017Z,8.86
2019-03-25T07:29:39.310Z,8.73
2019-03-25T07:32:10.955Z,8.89
2019-03-25T07:34:42.221Z,8.84
2019-03-25T07:37:13.301Z,8.94
2019-03-25T07:39:44.877Z,8.98
2019-03-25T07:42:16.262Z,9.03
2019-03-25T07:44:47.515Z,9.06
2019-03-25T07:47:18.424Z,9.41
2019-03-25T07:49:49.776Z,9.64
2019-03-25T07:52:20.684Z,9.41
2019-03-25T07:54:51.598Z,9.25
2019-03-25T07:57:22.439Z,9.35
2019-03-25T07:59:53.359Z,9.37
2019-03-25T08:02:24.871Z,9.31
2019-03-25T08:04:56.345Z,9.51
2019-03-25T08:07:27.302Z,9.90
2019-03-25T08:09:59.176Z,9.89
2019-03-25T08:12:31.057Z,9.87
2019-03-25T08:15:02.552Z,10.32
2019-03-25T08:17:35.085Z,10.38
2019-03-25T08:20:08.059Z,10.20
2019-03-25T08:22:40.327Z,10.11
2019-03-25T08:25:12.101Z,10.24
2019-03-25T08:27:44.541Z,9.98
2019-03-25T08:30:16.360Z,9.96
2019-03-25T08:32:47.528Z,9.67
2019-03-25T08:35:18.740Z,9.60
2019-03-25T08:37:50.258Z,9.86
2019-03-25T08:40:22.051Z,9.86
2019-03-25T08:42:54.124Z,9.96
2019-03-25T08:45:25.485Z,9.98
2019-03-25T08:47:56.486Z,9.80
2019-03-25T08:50:27.439Z,9.94
2019-03-25T08:52:58.656Z,10.14
2019-03-25T08:55:29.603Z,10.14
2019-03-25T08:58:11.566Z,10.07
2019-03-25T09:00:33.602Z,10.06
2019-03-25T09:03:04.386Z,10.19
2019-03-25T09:05:35.558Z,10.23
2019-03-25T09:08:07.200Z,10.38
2019-03-25T09:10:38.880Z,10.34
2019-03-25T09:13:10.077Z,10.56
2019-03-25T09:15:41.663Z,10.64
2019-03-25T09:18:12.675Z,10.77
2019-03-25T09:20:43.683Z,10.60
2019-03-25T09:23:15.006Z,10.74
2019-03-25T09:25:45.954Z,10.84
2019-03-25T09:28:24.174Z,11.18
2019-03-25T09:31:18.584Z,11.30
2019-03-25T09:33:50.401Z,11.17
2019-03-25T09:36:22.753Z,11.83
2019-03-25T09:38:54.502Z,11.72
2019-03-25T09:41:25.336Z,12.58
2019-03-25T09:43:56.692Z,12.74
2019-03-25T09:46:29.007Z,13.72
2019-03-25T09:49:00.160Z,13.97
2019-03-25T09:51:31.476Z,12.99
2019-03-25T09:54:02.728Z,13.73
2019-03-25T09:56:33.681Z,12.85
2019-03-25T09:59:05.414Z,12.42
2019-03-25T10:01:36.768Z,11.76
2019-03-25T10:04:07.519Z,11.83
2019-03-25T10:06:39.767Z,12.07
2019-03-25T10:09:12.035Z,12.13
2019-03-25T10:11:42.826Z,12.86
2019-03-25T10:14:14.223Z,13.61
2019-03-25T10:16:46.202Z,13.95
2019-03-25T10:19:17.533Z,14.51
2019-03-25T10:21:49.694Z,15.34
2019-03-25T10:24:27.606Z,15.77
2019-03-25T10:26:53.169Z,14.81
2019-03-25T10:29:27.540Z,14.47
2019-03-25T10:31:58.781Z,13.88
2019-03-25T10:34:29.962Z,13.89
2019-03-25T10:37:00.828Z,14.07
2019-03-25T10:39:32.135Z,13.80
2019-03-25T10:42:03.102Z,14.52
2019-03-25T10:44:33.892Z,14.83
2019-03-25T10:47:05.032Z,14.72
2019-03-25T10:49:36.467Z,14.31
2019-03-25T10:52:07.748Z,13.53
2019-03-25T10:54:40.046Z,13.21
2019-03-25T10:57:11.553Z,13.01
2019-03-25T10:59:42.726Z,12.89
2019-03-25T11:02:13.955Z,12.81
2019-03-25T11:04:44.827Z,12.64
2019-03-25T11:07:15.637Z,12.38
2019-03-25T11:09:46.826Z,12.48
2019-03-25T11:12:18.677Z,12.71
2019-03-25T11:14:49.466Z,12.55
2019-03-25T11:17:20.578Z,12.59
2019-03-25T11:19:51.481Z,12.29
2019-03-25T11:22:22.881Z,12.30
2019-03-25T11:24:53.758Z,12.07
2019-03-25T11:27:25.585Z,12.04
2019-03-25T11:29:56.493Z,11.60
2019-03-25T11:32:27.875Z,11.40
2019-03-25T11:34:58.669Z,11.56
2019-03-25T11:37:29.549Z,11.68
2019-03-25T11:40:01.144Z,11.61
2019-03-25T11:42:33.319Z,11.48
2019-03-25T11:45:04.289Z,11.38
2019-03-25T11:47:35.229Z,11.40
2019-03-25T11:50:06.817Z,11.43
2019-03-25T11:52:37.719Z,11.62
2019-03-25T11:55:08.933Z,11.92
2019-03-25T11:57:40.002Z,11.85
2019-03-25T12:00:11.659Z,12.06
2019-03-25T12:02:43.044Z,11.93
2019-03-25T12:05:14.013Z,11.88
2019-03-25T12:07:45.228Z,11.69
2019-03-25T12:10:16.427Z,11.65
2019-03-25T12:12:47.728Z,11.68
2019-03-25T12:15:18.669Z,11.56
2019-03-25T12:17:50.134Z,11.77
2019-03-25T12:20:21.274Z,12.13
2019-03-25T12:22:52.655Z,12.76
2019-03-25T12:25:23.968Z,14.06
2019-03-25T12:27:55.195Z,13.94
2019-03-25T12:30:27.484Z,15.51
2019-03-25T12:33:04.073Z,17.69
2019-03-25T12:35:30.978Z,20.26
2019-03-25T12:38:02.339Z,22.94
2019-03-25T12:40:33.264Z,23.40
2019-03-25T12:43:04.217Z,22.94
2019-03-25T12:45:35.350Z,21.64
2019-03-25T12:48:06.783Z,20.98
2019-03-25T12:50:37.808Z,20.78
2019-03-25T12:53:09.210Z,20.71
2019-03-25T12:55:40.612Z,18.83
2019-03-25T12:58:12.456Z,17.20
2019-03-25T13:00:45.002Z,15.89
2019-03-25T13:03:15.923Z,14.42
2019-03-25T13:05:47.127Z,13.99
2019-03-25T13:08:18.899Z,13.68
2019-03-25T13:10:49.853Z,13.44
2019-03-25T13:13:20.689Z,12.96
2019-03-25T13:15:52.007Z,13.11
2019-03-25T13:18:23.451Z,12.53
2019-03-25T13:20:54.896Z,17.14
2019-03-25T13:23:25.935Z,24.60
2019-03-25T13:25:57.415Z,24.60
2019-03-25T13:28:28.235Z,26.57
2019-03-25T13:30:59.363Z,28.28
2019-03-25T13:33:30.255Z,26.23
2019-03-25T13:36:01.510Z,20.80
2019-03-25T13:38:33.210Z,17.62
2019-03-25T13:41:04.243Z,16.07
2019-03-25T13:43:35.018Z,15.30
2019-03-25T13:46:06.011Z,14.29
2019-03-25T13:48:36.924Z,13.20
2019-03-25T13:51:07.752Z,12.67
2019-03-25T13:53:39.052Z,12.03
2019-03-25T13:56:10.238Z,12.03
2019-03-25T13:58:41.006Z,11.62
2019-03-25T14:01:12.747Z,11.58
2019-03-25T14:03:44.299Z,11.60
2019-03-25T14:06:15.053Z,11.99
2019-03-25T14:08:45.926Z,12.50
2019-03-25T14:11:17.528Z,13.57
2019-03-25T14:13:49.503Z,19.09
2019-03-25T14:16:20.930Z,20.96
2019-03-25T14:18:56.572Z,23.53
2019-03-25T14:21:29.780Z,23.76
2019-03-25T14:24:00.929Z,25.29
2019-03-25T14:26:31.859Z,23.95
2019-03-25T14:29:02.772Z,18.65
2019-03-25T14:31:33.547Z,15.84
2019-03-25T14:34:04.388Z,14.13
2019-03-25T14:36:36.003Z,13.23
2019-03-25T14:39:08.030Z,12.50
2019-03-25T14:41:43.014Z,12.19
2019-03-25T14:44:14.178Z,11.81
2019-03-25T14:46:44.918Z,11.78
2019-03-25T14:49:15.717Z,15.33
2019-03-25T14:51:46.492Z,18.71
2019-03-25T14:54:17.335Z,22.41
2019-03-25T14:56:48.187Z,22.94
2019-03-25T14:59:19.363Z,23.59
2019-03-25T15:01:50.554Z,23.20
2019-03-25T15:04:22.619Z,25.63
2019-03-25T15:06:53.573Z,21.21
2019-03-25T15:09:24.803Z,21.94
2019-03-25T15:11:55.655Z,17.07
2019-03-25T15:14:26.858Z,14.54
2019-03-25T15:16:57.627Z,13.76
2019-03-25T15:19:28.432Z,12.87
2019-03-25T15:21:59.215Z,12.77
2019-03-25T15:24:31.100Z,12.76
2019-03-25T15:27:02.871Z,12.59
2019-03-25T15:29:34.379Z,11.83
2019-03-25T15:32:05.610Z,11.56
2019-03-25T15:34:36.518Z,11.15
2019-03-25T15:37:07.903Z,11.15
2019-03-25T15:39:46.789Z,11.08
2019-03-25T15:42:12.240Z,16.68
2019-03-25T15:44:43.371Z,19.79
2019-03-25T15:47:14.345Z,22.21
2019-03-25T15:49:45.187Z,21.71
2019-03-25T15:52:17.260Z,20.08
2019-03-25T15:54:48.457Z,22.44
2019-03-25T15:57:19.511Z,22.78
2019-03-25T15:59:51.466Z,21.98
2019-03-25T16:02:22.607Z,24.03
2019-03-25T16:04:53.346Z,21.43
2019-03-25T16:07:24.877Z,16.58
2019-03-25T16:09:56.349Z,16.01
2019-03-25T16:12:27.156Z,19.90
2019-03-25T16:14:59.416Z,19.45
2019-03-25T16:17:30.351Z,17.09
2019-03-25T16:20:01.819Z,18.87
2019-03-25T16:22:32.993Z,16.94
2019-03-25T16:25:03.876Z,14.69
2019-03-25T16:27:35.912Z,13.22
2019-03-25T16:30:07.889Z,13.36
2019-03-25T16:32:38.995Z,12.41
2019-03-25T16:35:11.539Z,11.63
2019-03-25T16:37:43.155Z,11.29
2019-03-25T16:40:15.317Z,11.13
2019-03-25T16:42:46.153Z,11.01
2019-03-25T16:45:16.966Z,10.90
2019-03-25T16:47:48.540Z,10.67
2019-03-25T16:50:19.374Z,10.58
2019-03-25T16:52:50.502Z,10.50
2019-03-25T16:55:21.610Z,10.32
2019-03-25T16:57:53.206Z,10.16
2019-03-25T17:00:27.582Z,10.05
2019-03-25T17:02:57.946Z,9.90
2019-03-25T17:05:28.843Z,9.87
2019-03-25T17:07:59.669Z,9.83
2019-03-25T17:10:30.537Z,9.92
2019-03-25T17:13:02.147Z,9.92
2019-03-25T17:15:33.843Z,9.96
2019-03-25T17:18:05.519Z,9.87
2019-03-25T17:20:36.649Z,9.64
2019-03-25T17:23:08.237Z,9.46
2019-03-25T17:25:39.081Z,9.31
2019-03-25T17:28:10.310Z,9.16
2019-03-25T17:30:44.474Z,9.03
2019-03-25T17:33:15.327Z,8.93
2019-03-25T17:35:46.122Z,8.81
2019-03-25T17:38:17.410Z,8.68
2019-03-25T17:40:48.201Z,8.65
2019-03-25T17:43:19.034Z,8.56
2019-03-25T17:45:50.466Z,8.50
2019-03-25T17:48:21.326Z,8.38
2019-03-25T17:50:53.046Z,8.27
2019-03-25T17:53:24.066Z,8.20
2019-03-25T17:55:55.164Z,8.08
2019-03-25T17:58:26.389Z,7.92
2019-03-25T18:01:31.759Z,7.98
2019-03-25T18:03:54.095Z,7.87
2019-03-25T18:06:24.971Z,7.72
2019-03-25T18:08:56.204Z,7.73
2019-03-25T18:11:27.119Z,7.72
2019-03-25T18:13:58.001Z,7.69
2019-03-25T18:16:28.889Z,7.60
2019-03-25T18:19:00.110Z,7.57
2019-03-25T18:21:31.383Z,7.48
2019-03-25T18:24:02.250Z,7.37
2019-03-25T18:26:33.073Z,7.32
2019-03-25T18:29:03.968Z,7.22
2019-03-25T18:31:42.886Z,7.27
2019-03-25T18:34:16.265Z,7.25
2019-03-25T18:36:50.968Z,7.21
2019-03-25T18:39:21.811Z,7.19
2019-03-25T18:41:52.624Z,7.17
2019-03-25T18:44:23.642Z,7.05
2019-03-25T18:46:54.621Z,6.98
2019-03-25T18:49:26.608Z,6.91
2019-03-25T18:51:57.443Z,6.95
2019-03-25T18:54:28.475Z,6.93
2019-03-25T18:56:59.734Z,6.90
2019-03-25T18:59:30.944Z,6.89
2019-03-25T19:02:02.682Z,6.76
2019-03-25T19:04:33.547Z,6.64
2019-03-25T19:07:05.993Z,6.57
2019-03-25T19:09:36.915Z,6.56
2019-03-25T19:12:07.974Z,6.68
2019-03-25T19:14:39.933Z,6.74
2019-03-25T19:17:10.695Z,6.76
2019-03-25T19:19:41.553Z,6.69
2019-03-25T19:22:14.724Z,6.57
2019-03-25T19:24:46.949Z,6.43
2019-03-25T19:27:18.405Z,6.26
2019-03-25T19:29:50.691Z,6.08
2019-03-25T19:32:22.519Z,6.18
2019-03-25T19:34:53.612Z,6.20
2019-03-25T19:37:25.872Z,6.24
2019-03-25T19:39:56.779Z,6.28
2019-03-25T19:42:29.252Z,6.37
2019-03-25T19:45:00.451Z,6.49
2019-03-25T19:47:31.336Z,6.61
2019-03-25T19:50:02.179Z,6.68
2019-03-25T19:52:34.160Z,6.83
2019-03-25T19:55:05.439Z,6.98
2019-03-25T19:57:37.506Z,7.14
2019-03-25T20:00:09.665Z,7.25
2019-03-25T20:02:40.886Z,7.25
2019-03-25T20:05:11.656Z,7.38
2019-03-25T20:07:42.500Z,7.54
2019-03-25T20:10:32.048Z,7.54
2019-03-25T20:13:04.270Z,7.57
2019-03-25T20:15:45.424Z,7.60
2019-03-25T20:18:08.667Z,7.59
2019-03-25T20:20:40.017Z,7.52
2019-03-25T20:23:11.296Z,7.51
2019-03-25T20:25:44.256Z,7.41
2019-03-25T20:28:15.215Z,7.35
2019-03-25T20:30:46.510Z,7.31
2019-03-25T20:33:17.856Z,7.24
2019-03-25T20:35:49.317Z,7.15
2019-03-25T20:38:20.564Z,7.12
2019-03-25T20:40:51.531Z,7.06
2019-03-25T20:43:24.071Z,7.06
2019-03-25T20:45:55.528Z,6.95
2019-03-25T20:48:26.556Z,6.84
2019-03-25T20:50:57.614Z,6.77
2019-03-25T20:53:29.499Z,6.65
2019-03-25T20:56:00.351Z,6.52
2019-03-25T20:58:31.287Z,6.46
2019-03-25T21:01:02.600Z,6.40
2019-03-25T21:03:34.181Z,6.30
2019-03-25T21:06:05.036Z,6.35
2019-03-25T21:08:37.154Z,6.37
2019-03-25T21:11:08.597Z,6.43
2019-03-25T21:13:39.919Z,6.29
2019-03-25T21:16:10.731Z,6.15
2019-03-25T21:18:41.912Z,6.08
2019-03-25T21:21:13.061Z,6.06
2019-03-25T21:23:44.183Z,6.09
2019-03-25T21:26:15.372Z,6.21
2019-03-25T21:28:46.194Z,6.23
2019-03-25T21:31:17.460Z,6.19
2019-03-25T21:33:48.604Z,6.03
2019-03-25T21:36:19.803Z,5.88
2019-03-25T21:38:50.576Z,5.73
2019-03-25T21:41:21.409Z,5.66
2019-03-25T21:43:52.379Z,5.62
2019-03-25T21:46:24.806Z,5.52
2019-03-25T21:48:55.663Z,5.39
2019-03-25T21:51:27.246Z,5.13
2019-03-25T21:53:58.120Z,5.00
2019-03-25T21:56:29.707Z,4.89
2019-03-25T21:59:00.862Z,4.70
2019-03-25T22:01:32.354Z,4.53
2019-03-25T22:04:03.117Z,4.51
2019-03-25T22:06:34.313Z,4.46
2019-03-25T22:09:07.701Z,4.39
2019-03-25T22:11:38.516Z,4.26
2019-03-25T22:14:09.661Z,4.14
2019-03-25T22:16:42.019Z,4.05
2019-03-25T22:19:13.076Z,4.04
2019-03-25T22:21:44.531Z,4.06
2019-03-25T22:24:16.033Z,4.12
2019-03-25T22:26:47.092Z,4.13
2019-03-25T22:29:18.776Z,4.04
2019-03-25T22:31:50.126Z,4.00
2019-03-25T22:34:20.955Z,3.93
2019-03-25T22:36:51.695Z,3.92
2019-03-25T22:39:23.134Z,3.91
2019-03-25T22:41:54.906Z,3.87
2019-03-25T22:44:26.160Z,3.94
2019-03-25T22:46:57.293Z,4.02
2019-03-25T22:49:28.755Z,4.06
2019-03-25T22:51:59.855Z,4.13
2019-03-25T22:54:30.716Z,4.27
2019-03-25T22:57:01.776Z,4.27
2019-03-25T22:59:33.730Z,4.22
2019-03-25T23:02:05.527Z,4.14
2019-03-25T23:04:36.967Z,3.98
2019-03-25T23:07:08.475Z,3.84
2019-03-25T23:09:39.935Z,3.66
2019-03-25T23:12:11.782Z,3.43
2019-03-25T23:14:42.958Z,3.41
2019-03-25T23:17:13.690Z,3.45
2019-03-25T23:19:45.348Z,3.65
2019-03-25T23:22:17.069Z,3.80
2019-03-25T23:24:52.430Z,3.92
2019-03-25T23:27:23.859Z,4.00
2019-03-25T23:29:54.622Z,4.08
2019-03-25T23:32:25.543Z,4.10
2019-03-25T23:34:57.207Z,4.17
2019-03-25T23:37:29.124Z,4.20
2019-03-25T23:40:00.470Z,4.26
2019-03-25T23:42:31.658Z,4.35
2019-03-25T23:45:02.449Z,4.35
2019-03-25T23:47:34.071Z,4.41
2019-03-25T23:50:05.291Z,4.39
2019-03-25T23:52:36.126Z,4.44
2019-03-25T23:55:07.145Z,4.41
2019-03-25T23:57:37.932Z,4.43
